createdAt,value
2022-11-24T00:01:05.767Z,5.47
2022-11-24T00:03:34.021Z,5.97
2022-11-24T00:06:05.656Z,5.17
2022-11-24T00:08:35.207Z,4.50
2022-11-24T00:11:07.680Z,4.67
2022-11-24T00:13:35.977Z,4.77
2022-11-24T00:16:09.016Z,5.83
2022-11-24T00:18:36.939Z,5.07
2022-11-24T00:21:05.153Z,5.53
2022-11-24T00:23:34.852Z,4.43
2022-11-24T00:26:08.095Z,4.40
2022-11-24T00:28:37.228Z,5.03
2022-11-24T00:31:07.092Z,3.57
2022-11-24T00:33:35.169Z,3.90
2022-11-24T00:36:03.028Z,3.20
2022-11-24T00:38:30.920Z,3.50
2022-11-24T00:41:00.151Z,3.30
2022-11-24T00:43:28.126Z,3.77
2022-11-24T00:45:56.158Z,4.00
2022-11-24T00:48:24.147Z,4.17
2022-11-24T00:50:59.409Z,3.30
2022-11-24T00:53:28.204Z,4.20
2022-11-24T00:55:56.784Z,3.93
2022-11-24T00:58:26.773Z,3.80
2022-11-24T01:00:54.663Z,3.30
2022-11-24T01:03:22.948Z,3.43
2022-11-24T01:05:50.843Z,3.37
2022-11-24T01:08:18.749Z,4.50
2022-11-24T01:10:46.669Z,3.80
2022-11-24T01:13:14.556Z,3.00
2022-11-24T01:15:43.899Z,3.83
2022-11-24T01:18:13.166Z,4.00
2022-11-24T01:20:41.095Z,3.47
2022-11-24T01:23:09.001Z,3.80
2022-11-24T01:25:40.605Z,4.60
2022-11-24T01:28:08.493Z,4.10
2022-11-24T01:30:36.489Z,4.30
2022-11-24T01:33:06.126Z,3.90
2022-11-24T01:35:34.260Z,3.50
2022-11-24T01:38:02.225Z,3.63
2022-11-24T01:40:30.096Z,3.00
2022-11-24T01:42:57.973Z,3.83
2022-11-24T01:45:33.035Z,3.43
2022-11-24T01:48:03.692Z,3.33
2022-11-24T01:50:33.952Z,3.33
2022-11-24T01:53:01.886Z,2.87
2022-11-24T01:55:35.108Z,3.40
2022-11-24T01:58:06.431Z,3.03
2022-11-24T02:00:37.387Z,3.53
2022-11-24T02:03:05.398Z,3.00
2022-11-24T02:05:41.908Z,4.00
2022-11-24T02:08:15.804Z,2.97
2022-11-24T02:10:46.471Z,3.97
2022-11-24T02:13:15.926Z,3.50
2022-11-24T02:15:43.935Z,3.30
2022-11-24T02:18:12.008Z,3.03
2022-11-24T02:20:41.439Z,2.67
2022-11-24T02:23:18.135Z,3.17
2022-11-24T02:25:55.394Z,2.30
2022-11-24T02:28:27.483Z,3.10
2022-11-24T02:30:55.940Z,3.87
2022-11-24T02:33:25.267Z,3.20
2022-11-24T02:35:53.325Z,2.50
2022-11-24T02:38:31.308Z,3.10
2022-11-24T02:41:01.467Z,2.93
2022-11-24T02:43:35.856Z,3.47
2022-11-24T02:46:03.864Z,2.80
2022-11-24T02:48:31.843Z,3.13
2022-11-24T02:50:59.744Z,3.50
2022-11-24T02:53:27.651Z,3.60
2022-11-24T02:55:55.595Z,3.10
2022-11-24T02:58:23.589Z,4.20
2022-11-24T03:00:54.261Z,3.87
2022-11-24T03:03:22.525Z,4.20
2022-11-24T03:05:50.660Z,3.77
2022-11-24T03:08:18.525Z,3.40
2022-11-24T03:10:46.546Z,3.97
2022-11-24T03:13:14.489Z,3.17
2022-11-24T03:15:42.464Z,3.73
2022-11-24T03:18:11.774Z,3.33
2022-11-24T03:20:39.653Z,4.13
2022-11-24T03:23:07.537Z,5.00
2022-11-24T03:25:35.491Z,4.70
2022-11-24T03:28:03.332Z,4.60
2022-11-24T03:30:31.364Z,3.53
2022-11-24T03:32:59.238Z,4.33
2022-11-24T03:35:28.499Z,4.00
2022-11-24T03:37:56.396Z,3.23
2022-11-24T03:40:24.253Z,3.23
2022-11-24T03:42:52.140Z,3.40
2022-11-24T03:45:45.043Z,3.00
2022-11-24T03:48:08.678Z,3.93
2022-11-24T03:50:38.005Z,3.70
2022-11-24T03:53:05.973Z,3.57
2022-11-24T03:55:34.014Z,3.63
2022-11-24T03:58:01.895Z,3.00
2022-11-24T04:00:29.850Z,3.63
2022-11-24T04:02:57.785Z,3.67
2022-11-24T04:05:25.932Z,3.47
2022-11-24T04:07:58.380Z,3.20
2022-11-24T04:10:26.698Z,3.57
2022-11-24T04:12:53.642Z,4.33
2022-11-24T04:15:21.848Z,3.83
2022-11-24T04:17:50.984Z,3.23
2022-11-24T04:20:19.245Z,3.50
2022-11-24T04:22:47.134Z,4.30
2022-11-24T04:25:17.462Z,3.60
2022-11-24T04:27:45.645Z,3.10
2022-11-24T04:30:14.036Z,2.90
2022-11-24T04:32:41.939Z,3.17
2022-11-24T04:35:10.211Z,3.50
2022-11-24T04:37:38.341Z,4.00
2022-11-24T04:40:08.131Z,3.43
2022-11-24T04:42:37.782Z,3.60
2022-11-24T04:45:07.069Z,4.10
2022-11-24T04:47:35.038Z,3.43
2022-11-24T04:50:04.568Z,3.37
2022-11-24T04:52:32.468Z,2.90
2022-11-24T04:55:00.336Z,3.80
2022-11-24T04:57:28.466Z,3.53
2022-11-24T04:59:57.752Z,4.43
2022-11-24T05:02:25.747Z,4.77
2022-11-24T05:04:53.741Z,5.10
2022-11-24T05:07:21.666Z,5.57
2022-11-24T05:10:07.384Z,5.70
2022-11-24T05:12:35.311Z,5.90
2022-11-24T05:15:06.509Z,5.80
2022-11-24T05:17:36.018Z,5.80
2022-11-24T05:20:05.420Z,5.30
2022-11-24T05:22:33.668Z,5.27
2022-11-24T05:25:01.778Z,4.57
2022-11-24T05:27:29.965Z,5.00
2022-11-24T05:29:57.986Z,4.77
2022-11-24T05:32:27.270Z,7.57
2022-11-24T05:34:55.193Z,4.67
2022-11-24T05:37:23.105Z,4.80
2022-11-24T05:39:51.026Z,6.17
2022-11-24T05:42:48.422Z,5.00
2022-11-24T05:45:18.865Z,5.30
2022-11-24T05:47:48.668Z,4.50
2022-11-24T05:50:19.080Z,4.80
2022-11-24T05:52:47.093Z,5.00
2022-11-24T05:55:15.921Z,4.23
2022-11-24T05:57:43.910Z,4.87
2022-11-24T06:00:12.754Z,3.93
2022-11-24T06:02:41.106Z,4.33
2022-11-24T06:05:10.744Z,4.80
2022-11-24T06:07:38.705Z,3.63
2022-11-24T06:10:07.145Z,4.63
2022-11-24T06:12:35.103Z,4.90
2022-11-24T06:15:03.177Z,3.70
2022-11-24T06:17:31.061Z,5.60
2022-11-24T06:19:58.997Z,4.00
2022-11-24T06:22:28.229Z,5.17
2022-11-24T06:24:56.105Z,4.50
2022-11-24T06:27:24.126Z,4.73
2022-11-24T06:29:52.174Z,4.23
2022-11-24T06:32:20.385Z,5.03
2022-11-24T06:34:48.321Z,4.10
2022-11-24T06:37:16.217Z,3.97
2022-11-24T06:39:45.474Z,4.30
2022-11-24T06:42:13.379Z,4.30
2022-11-24T06:44:41.714Z,4.00
2022-11-24T06:47:09.586Z,5.10
2022-11-24T06:49:37.478Z,4.27
2022-11-24T06:52:05.700Z,4.40
2022-11-24T06:54:33.844Z,4.00
2022-11-24T06:57:03.350Z,4.00
2022-11-24T06:59:31.248Z,4.50
2022-11-24T07:01:59.198Z,4.83
2022-11-24T07:04:27.109Z,4.70
2022-11-24T07:06:54.979Z,4.40
2022-11-24T07:09:22.871Z,3.67
2022-11-24T07:11:50.799Z,4.60
2022-11-24T07:14:20.044Z,7.53
2022-11-24T07:16:47.966Z,5.37
2022-11-24T07:19:20.153Z,4.30
2022-11-24T07:21:51.252Z,4.47
2022-11-24T07:24:19.142Z,4.60
2022-11-24T07:26:46.995Z,4.50
2022-11-24T07:29:14.947Z,4.00
2022-11-24T07:31:45.986Z,3.47
2022-11-24T07:34:14.759Z,5.43
2022-11-24T07:36:43.065Z,3.00
2022-11-24T07:39:11.035Z,4.20
2022-11-24T07:41:38.984Z,4.27
2022-11-24T07:44:07.110Z,4.67
2022-11-24T07:46:35.011Z,5.00
2022-11-24T07:49:04.425Z,3.40
2022-11-24T07:51:32.643Z,4.47
2022-11-24T07:54:00.509Z,4.00
2022-11-24T07:56:28.377Z,4.30
2022-11-24T07:58:56.271Z,4.73
2022-11-24T08:01:24.266Z,5.87
2022-11-24T08:03:52.420Z,4.40
2022-11-24T08:06:25.435Z,4.27
2022-11-24T08:08:54.311Z,6.00
2022-11-24T08:11:22.502Z,4.57
2022-11-24T08:13:50.405Z,3.83
2022-11-24T08:16:20.099Z,5.13
2022-11-24T08:18:51.617Z,4.27
2022-11-24T08:21:23.261Z,4.40
2022-11-24T08:23:54.769Z,4.80
2022-11-24T08:26:23.055Z,4.50
2022-11-24T08:28:55.081Z,3.90
2022-11-24T08:31:23.152Z,4.10
2022-11-24T08:33:51.061Z,5.07
2022-11-24T08:36:20.893Z,4.23
2022-11-24T08:38:49.440Z,4.20
2022-11-24T08:41:18.575Z,3.20
2022-11-24T08:43:46.649Z,3.33
2022-11-24T08:46:17.147Z,4.50
2022-11-24T08:48:45.543Z,4.60
2022-11-24T08:51:15.622Z,3.97
2022-11-24T08:53:45.065Z,3.50
2022-11-24T08:56:14.097Z,4.50
2022-11-24T08:58:43.137Z,3.50
2022-11-24T09:01:13.122Z,3.90
2022-11-24T09:03:46.578Z,4.30
2022-11-24T09:06:18.942Z,3.77
2022-11-24T09:08:48.599Z,5.17
2022-11-24T09:11:17.440Z,4.63
2022-11-24T09:13:45.903Z,4.30
2022-11-24T09:16:15.376Z,5.17
2022-11-24T09:18:43.648Z,5.10
2022-11-24T09:21:12.903Z,4.00
2022-11-24T09:23:41.430Z,4.73
2022-11-24T09:26:16.749Z,3.50
2022-11-24T09:28:45.814Z,3.60
2022-11-24T09:31:15.469Z,4.13
2022-11-24T09:33:44.608Z,4.80
2022-11-24T09:36:12.762Z,3.00
2022-11-24T09:38:41.020Z,4.20
2022-11-24T09:41:34.538Z,3.77
2022-11-24T09:44:09.472Z,3.63
2022-11-24T09:46:47.683Z,4.80
2022-11-24T09:49:25.681Z,5.37
2022-11-24T09:51:56.004Z,5.13
2022-11-24T09:54:27.708Z,3.53
2022-11-24T09:57:00.570Z,3.93
2022-11-24T09:59:29.024Z,3.90
2022-11-24T10:01:56.983Z,3.53
2022-11-24T10:04:29.581Z,3.67
2022-11-24T10:07:06.561Z,3.00
2022-11-24T10:09:49.644Z,3.80
2022-11-24T10:12:42.149Z,3.33
2022-11-24T10:15:24.535Z,2.80
2022-11-24T10:18:17.187Z,3.13
2022-11-24T10:20:55.730Z,2.33
2022-11-24T10:23:41.665Z,2.60
2022-11-24T10:26:16.881Z,1.90
2022-11-24T10:28:52.118Z,2.40
2022-11-24T10:31:25.742Z,3.60
2022-11-24T10:33:53.685Z,2.33
2022-11-24T10:36:26.786Z,3.00
2022-11-24T10:39:02.626Z,2.97
2022-11-24T10:41:41.136Z,2.60
2022-11-24T10:44:15.629Z,11.87
2022-11-24T10:46:43.880Z,3.07
2022-11-24T10:49:18.982Z,3.30
2022-11-24T10:52:01.386Z,2.40
2022-11-24T10:54:29.787Z,3.37
2022-11-24T10:56:58.709Z,2.43
2022-11-24T10:59:35.839Z,3.53
2022-11-24T11:02:04.608Z,2.87
2022-11-24T11:04:34.777Z,2.53
2022-11-24T11:07:18.699Z,2.40
2022-11-24T11:09:47.300Z,3.13
2022-11-24T11:15:31.626Z,2.67
2022-11-24T11:18:01.116Z,2.00
2022-11-24T11:20:32.270Z,2.40
2022-11-24T11:23:02.799Z,1.93
2022-11-24T11:25:33.790Z,2.40
2022-11-24T11:28:24.246Z,2.20
2022-11-24T11:31:19.736Z,2.03
2022-11-24T11:34:06.978Z,2.40
2022-11-24T11:36:42.411Z,2.97
2022-11-24T11:39:24.731Z,3.03
2022-11-24T11:41:59.740Z,2.07
2022-11-24T11:44:35.703Z,2.97
2022-11-24T11:47:14.831Z,4.00
2022-11-24T11:49:42.746Z,2.10
2022-11-24T11:52:35.781Z,2.80
2022-11-24T11:55:23.932Z,1.77
2022-11-24T11:58:01.199Z,1.80
2022-11-24T12:00:33.022Z,1.37
2022-11-24T12:03:40.445Z,2.03
2022-11-24T12:06:21.345Z,1.70
2022-11-24T12:09:19.402Z,1.70
2022-11-24T12:11:57.414Z,2.80
2022-11-24T12:14:33.438Z,1.90
2022-11-24T12:17:10.944Z,1.97
2022-11-24T12:19:59.284Z,1.93
2022-11-24T12:22:38.005Z,2.00
2022-11-24T12:25:23.927Z,1.83
2022-11-24T12:28:03.644Z,1.63
2022-11-24T12:30:39.044Z,2.30
2022-11-24T12:33:31.396Z,1.80
2022-11-24T12:36:11.108Z,1.83
2022-11-24T12:38:52.626Z,1.67
2022-11-24T12:41:41.818Z,1.50
2022-11-24T12:44:28.666Z,1.60
2022-11-24T12:47:05.859Z,2.53
2022-11-24T12:49:42.433Z,2.10
2022-11-24T12:52:24.744Z,1.80
2022-11-24T12:54:52.967Z,1.70
2022-11-24T12:57:28.282Z,2.70
2022-11-24T13:00:06.064Z,2.10
2022-11-24T13:02:47.706Z,2.40
2022-11-24T13:05:25.476Z,2.03
2022-11-24T13:07:59.352Z,1.83
2022-11-24T13:11:00.376Z,3.73
2022-11-24T13:13:31.356Z,4.10
2022-11-24T13:16:35.158Z,3.37
2022-11-24T13:19:03.440Z,3.57
2022-11-24T13:21:51.743Z,2.90
2022-11-24T13:24:26.482Z,2.40
2022-11-24T13:27:15.138Z,1.90
2022-11-24T13:29:44.307Z,2.10
2022-11-24T13:32:51.887Z,3.00
2022-11-24T13:35:19.911Z,2.07
2022-11-24T13:37:53.332Z,2.47
2022-11-24T13:40:59.793Z,2.17
2022-11-24T13:43:31.817Z,2.17
2022-11-24T13:45:59.796Z,2.70
2022-11-24T13:49:01.441Z,2.50
2022-11-24T13:51:29.361Z,1.97
2022-11-24T13:54:00.772Z,1.90
2022-11-24T13:56:32.628Z,1.47
2022-11-24T13:59:17.547Z,1.90
2022-11-24T14:01:46.875Z,2.13
2022-11-24T14:04:35.493Z,1.27
2022-11-24T14:07:09.207Z,1.63
2022-11-24T14:09:43.861Z,1.70
2022-11-24T14:12:18.954Z,1.77
2022-11-24T14:14:48.796Z,1.63
2022-11-24T14:17:20.188Z,1.90
2022-11-24T14:19:50.666Z,1.87
2022-11-24T14:22:21.614Z,1.90
2022-11-24T14:24:54.744Z,2.00
2022-11-24T14:27:28.587Z,1.70
2022-11-24T14:29:57.657Z,2.07
2022-11-24T14:32:25.984Z,1.70
2022-11-24T14:34:54.523Z,1.80
2022-11-24T14:37:22.690Z,1.63
2022-11-24T14:39:50.627Z,1.50
2022-11-24T14:42:21.495Z,1.40
2022-11-24T14:44:54.168Z,1.40
2022-11-24T14:47:31.196Z,1.97
2022-11-24T14:50:10.226Z,1.73
2022-11-24T14:52:45.569Z,1.67
2022-11-24T14:55:28.970Z,1.37
2022-11-24T14:57:57.135Z,1.60
2022-11-24T15:00:31.001Z,1.70
2022-11-24T15:03:15.968Z,2.40
2022-11-24T15:05:55.832Z,1.50
2022-11-24T15:08:25.352Z,1.17
2022-11-24T15:10:59.633Z,1.37
2022-11-24T15:13:28.029Z,2.07
2022-11-24T15:16:02.851Z,1.73
2022-11-24T15:18:37.248Z,1.60
2022-11-24T15:21:05.626Z,1.70
2022-11-24T15:23:35.094Z,1.70
2022-11-24T15:26:29.193Z,2.23
2022-11-24T15:28:59.299Z,1.33
2022-11-24T15:31:28.643Z,1.43
2022-11-24T15:33:56.663Z,2.30
2022-11-24T15:36:24.614Z,1.40
2022-11-24T15:38:52.872Z,1.20
2022-11-24T15:41:22.704Z,1.03
2022-11-24T15:43:50.628Z,1.77
2022-11-24T15:46:18.571Z,2.60
2022-11-24T15:48:47.927Z,2.30
2022-11-24T15:51:16.374Z,4.23
2022-11-24T15:53:46.620Z,2.53
2022-11-24T15:56:23.083Z,1.70
2022-11-24T15:58:50.992Z,2.00
2022-11-24T16:01:18.993Z,1.97
2022-11-24T16:03:49.150Z,2.00
2022-11-24T16:06:24.776Z,1.40
2022-11-24T16:08:53.406Z,2.03
2022-11-24T16:11:21.552Z,1.30
2022-11-24T16:13:53.037Z,1.20
2022-11-24T16:16:22.508Z,1.53
2022-11-24T16:18:52.159Z,1.50
2022-11-24T16:21:20.250Z,1.17
2022-11-24T16:23:48.721Z,1.80
2022-11-24T16:26:16.803Z,1.20
2022-11-24T16:28:45.690Z,1.27
2022-11-24T16:31:15.802Z,1.40
2022-11-24T16:33:44.772Z,1.70
2022-11-24T16:36:14.423Z,1.17
2022-11-24T16:38:42.514Z,1.30
2022-11-24T16:41:10.651Z,0.70
2022-11-24T16:43:39.082Z,0.80
2022-11-24T16:46:18.088Z,1.17
2022-11-24T16:48:47.093Z,0.90
2022-11-24T16:51:17.322Z,1.30
2022-11-24T16:53:45.231Z,2.03
2022-11-24T16:56:14.714Z,1.10
2022-11-24T16:58:43.106Z,1.23
2022-11-24T17:01:13.566Z,1.33
2022-11-24T17:03:41.676Z,1.67
2022-11-24T17:06:12.825Z,1.20
2022-11-24T17:08:42.811Z,1.53
2022-11-24T17:11:12.794Z,1.30
2022-11-24T17:13:41.687Z,1.00
2022-11-24T17:16:11.871Z,1.17
2022-11-24T17:18:40.663Z,1.80
2022-11-24T17:21:12.356Z,1.53
2022-11-24T17:23:41.754Z,1.10
2022-11-24T17:26:12.977Z,1.43
2022-11-24T17:28:41.270Z,1.63
2022-11-24T17:31:09.686Z,2.30
2022-11-24T17:33:37.609Z,1.50
2022-11-24T17:36:06.754Z,1.30
2022-11-24T17:38:35.128Z,1.37
2022-11-24T17:41:05.061Z,1.60
2022-11-24T17:43:33.273Z,1.50
2022-11-24T17:46:03.569Z,1.20
2022-11-24T17:48:32.403Z,1.47
2022-11-24T17:51:01.507Z,1.47
2022-11-24T17:53:29.843Z,1.20
2022-11-24T17:56:00.825Z,1.60
2022-11-24T17:58:31.099Z,1.27
2022-11-24T18:00:59.284Z,1.40
2022-11-24T18:03:28.791Z,1.60
2022-11-24T18:05:56.853Z,1.37
2022-11-24T18:08:24.999Z,1.67
2022-11-24T18:10:52.900Z,1.10
2022-11-24T18:13:41.103Z,1.50
2022-11-24T18:16:12.537Z,1.50
2022-11-24T18:18:42.092Z,2.00
2022-11-24T18:21:14.578Z,1.70
2022-11-24T18:23:43.404Z,1.40
2022-11-24T18:26:13.901Z,1.33
2022-11-24T18:28:42.070Z,1.40
2022-11-24T18:31:13.374Z,1.60
2022-11-24T18:33:42.959Z,1.60
2022-11-24T18:36:13.596Z,2.07
2022-11-24T18:38:41.612Z,2.00
2022-11-24T18:41:10.527Z,1.37
2022-11-24T18:43:39.302Z,1.30
2022-11-24T18:46:08.662Z,1.67
2022-11-24T18:48:37.963Z,1.20
2022-11-24T18:51:07.403Z,1.77
2022-11-24T18:53:35.580Z,1.53
2022-11-24T18:56:06.498Z,1.53
2022-11-24T18:58:36.527Z,1.90
2022-11-24T19:01:08.968Z,1.47
2022-11-24T19:03:46.529Z,1.40
2022-11-24T19:06:18.332Z,1.50
2022-11-24T19:08:46.271Z,1.80
2022-11-24T19:11:21.332Z,1.80
2022-11-24T19:13:49.617Z,1.47
2022-11-24T19:16:18.479Z,1.10
2022-11-24T19:18:53.673Z,1.70
2022-11-24T19:21:22.750Z,2.00
2022-11-24T19:23:51.205Z,1.77
2022-11-24T19:26:19.432Z,1.70
2022-11-24T19:28:47.320Z,1.17
2022-11-24T19:31:17.244Z,1.50
2022-11-24T19:33:47.268Z,1.23
2022-11-24T19:36:16.891Z,1.33
2022-11-24T19:38:50.039Z,1.30
2022-11-24T19:41:19.447Z,1.50
2022-11-24T19:43:48.220Z,1.67
2022-11-24T19:46:17.759Z,1.53
2022-11-24T19:48:48.672Z,1.33
2022-11-24T19:51:18.461Z,0.93
2022-11-24T19:53:46.879Z,1.30
2022-11-24T19:56:17.565Z,1.33
2022-11-24T19:58:45.943Z,1.60
2022-11-24T20:01:15.470Z,1.70
2022-11-24T20:03:44.660Z,1.57
2022-11-24T20:06:15.367Z,1.60
2022-11-24T20:08:43.957Z,1.23
2022-11-24T20:11:14.068Z,1.40
2022-11-24T20:13:43.991Z,1.87
2022-11-24T20:16:14.004Z,1.60
2022-11-24T20:18:44.529Z,1.30
2022-11-24T20:21:15.265Z,1.47
2022-11-24T20:23:43.944Z,1.13
2022-11-24T20:26:13.698Z,1.23
2022-11-24T20:28:42.074Z,1.00
2022-11-24T20:31:12.130Z,1.20
2022-11-24T20:33:40.469Z,1.60
2022-11-24T20:36:11.426Z,1.40
2022-11-24T20:38:41.619Z,0.97
2022-11-24T20:41:11.776Z,1.30
2022-11-24T20:43:40.925Z,1.27
2022-11-24T20:46:10.727Z,1.10
2022-11-24T20:48:39.064Z,1.20
2022-11-24T20:51:08.576Z,1.10
2022-11-24T20:53:37.165Z,1.30
2022-11-24T20:56:08.747Z,1.47
2022-11-24T20:58:37.578Z,2.00
2022-11-24T21:01:06.862Z,1.20
2022-11-24T21:03:39.692Z,1.00
2022-11-24T21:06:11.239Z,1.30
2022-11-24T21:08:40.658Z,1.50
2022-11-24T21:11:12.156Z,1.20
2022-11-24T21:13:41.379Z,1.37
2022-11-24T21:16:13.853Z,1.30
2022-11-24T21:18:42.396Z,0.80
2022-11-24T21:21:10.607Z,1.43
2022-11-24T21:23:38.520Z,1.60
2022-11-24T21:26:16.287Z,1.40
2022-11-24T21:28:45.869Z,1.60
2022-11-24T21:31:16.143Z,1.53
2022-11-24T21:33:45.830Z,1.40
2022-11-24T21:36:15.460Z,1.93
2022-11-24T21:38:44.191Z,1.60
2022-11-24T21:41:14.202Z,2.10
2022-11-24T21:43:42.231Z,1.80
2022-11-24T21:46:11.970Z,1.67
2022-11-24T21:48:41.082Z,1.67
2022-11-24T21:51:11.985Z,1.87
2022-11-24T21:53:40.405Z,1.83
2022-11-24T21:56:12.694Z,1.57
2022-11-24T21:58:45.768Z,1.80
2022-11-24T22:01:14.468Z,1.33
2022-11-24T22:03:42.418Z,1.30
2022-11-24T22:06:10.653Z,1.67
2022-11-24T22:08:38.776Z,1.60
2022-11-24T22:11:08.531Z,1.90
2022-11-24T22:13:36.559Z,1.97
2022-11-24T22:16:07.598Z,1.43
2022-11-24T22:18:36.600Z,1.07
2022-11-24T22:21:05.429Z,1.17
2022-11-24T22:23:34.742Z,1.20
2022-11-24T22:26:06.839Z,1.23
2022-11-24T22:28:35.814Z,1.63
2022-11-24T22:31:10.963Z,1.70
2022-11-24T22:33:39.341Z,1.97
2022-11-24T22:36:07.977Z,1.20
2022-11-24T22:38:36.888Z,1.63
2022-11-24T22:41:05.614Z,1.50
2022-11-24T22:43:34.494Z,1.27
2022-11-24T22:46:08.267Z,1.23
2022-11-24T22:48:36.603Z,1.57
2022-11-24T22:51:05.808Z,1.20
2022-11-24T22:53:33.940Z,1.10
2022-11-24T22:56:02.699Z,1.87
2022-11-24T22:58:30.944Z,1.40
2022-11-24T23:01:04.014Z,2.13
2022-11-24T23:03:33.495Z,2.00
2022-11-24T23:06:01.712Z,1.80
2022-11-24T23:08:29.881Z,2.30
2022-11-24T23:11:01.595Z,2.17
2022-11-24T23:13:29.625Z,1.57
2022-11-24T23:16:02.340Z,1.67
2022-11-24T23:18:30.521Z,2.60
2022-11-24T23:21:06.023Z,3.37
2022-11-24T23:23:34.196Z,2.60
2022-11-24T23:26:02.498Z,2.20
2022-11-24T23:28:30.585Z,2.10
2022-11-24T23:31:02.454Z,1.90
2022-11-24T23:33:30.798Z,1.80
2022-11-24T23:36:03.053Z,1.77
2022-11-24T23:38:32.748Z,1.93
2022-11-24T23:41:04.085Z,2.00
2022-11-24T23:43:32.112Z,1.73
2022-11-24T23:46:03.968Z,2.10
2022-11-24T23:48:31.927Z,1.83
2022-11-24T23:51:05.982Z,2.03
2022-11-24T23:53:34.304Z,1.50
2022-11-24T23:56:02.499Z,1.80
2022-11-24T23:58:30.626Z,1.53
